Red Mountain, California
Current Conditions -  °F | °C
As of 4:56 PM on Monday 20 Oct 2014 (Local Time) from KNID Reporting Station
Broken Clouds Broken Clouds  
Wind Chill: 86°   Ceiling: 18000
Heat Index: 86°   Visibility: 10mi
Dew Point: 36°   Wind: 10mph
Humidity: 17%   Direction: 210°SSW
Pressure: 29.81"   Gusts: NA
Location:  35.36°N, 117.62°W
Report Text: KNID 202356Z 21009KT 10SM BKN180 30/02 A2981 RMK AO2 SLP077 T03000022 10311 20250 56012 $
Loading
Personal Weather Stations






























Interactive Weather Map
Tropical Storm Tracking
New forecast layout! Learn more

10-Day Weather Forecast

Advertisements
Track Severe Weather on mobile